Airfield :
LOGIN :

Register | Disclaimer

   EN    FR    IT 

 










Legend :    VFR   Marginal VFR   IFR   Intensive IFR   Very Intensive IFR
Visi :
Ceiling :
>= 8 km
>= 3000ft
5 to 8 km
1000 to 3000 ft
1500m to 5 km
500 to 1000 ft
800 to 1500m
200 to 500 ft
< 800m
< 200 ft
Symbols :   Thunderstorms  Fog  Heavy snow  Heavy precipitations  Wind > 20 kt
SIGMETs :     Misc.  Thunderstorms  Icing  Turbulence  Mountain Waves  Volcanic Ashes







- Airport Elevation : 622 ft
- IATA code : BRS
- Download approach charts


EGGD - Bristol Int.

CURRENT METAR :
  • 200820Z AUTO 05008KT 9999 NCD 14/08 Q1031

EXPIRED METARs :
  • 200750Z AUTO 05008KT 9999 NCD 13/07 Q1031
  • 200720Z AUTO 06007KT 9999 NCD 12/07 Q1031
  • 200650Z AUTO 06008KT 9999 NCD 11/06 Q1031
  • 200620Z AUTO 07010KT 9999 NCD 10/06 Q1031
  • 200550Z AUTO 07009KT 9999 NCD 09/06 Q1031

TAF TAF EGGD
Valid from the 20 at 06:00 until the 21 at 06:00 UTC


200505Z 2006/2106 06007KT CAVOK
PROB30 2006/2008 8000
PROB30 2103/2106 8000
ATIS : +44 1275 473 666
No reported NOTAMs for that airfield.



MET'MAP, your aeronautical weather chart ! - Copyright ORBIFLY December 2007 - Disclaimer

ORBIFLY MET'MAP TEAM :

Programming & Development : Alexandra Zaïnal
Concept & Development : Baudouin d'Aumeries
Co-Development & Prog : Marc-Olivier Méhu
Technical & hardware support : Manuel Goepfert

Contact : metmap@orbifly.com




SOURCES & CREDITS :

   NOAA